createdAt,value
2022-08-01T00:03:59.575Z,99935.22
2022-08-01T00:09:01.553Z,99924.66
2022-08-01T00:14:02.194Z,99922.63
2022-08-01T00:19:02.969Z,99915.72
2022-08-01T00:24:05.254Z,99904.09
2022-08-01T00:29:11.510Z,99906.72
2022-08-01T00:34:26.714Z,99904.91
2022-08-01T00:39:28.701Z,99909.16
2022-08-01T00:44:29.334Z,99911.56
2022-08-01T00:49:30.261Z,99910.28
2022-08-01T00:54:32.751Z,99912.22
2022-08-01T00:59:34.069Z,99918.72
2022-08-01T01:04:35.675Z,99910.88
2022-08-01T01:09:44.696Z,99908.88
2022-08-01T01:14:52.981Z,99906.94
2022-08-01T01:19:56.515Z,99920.47
2022-08-01T01:25:32.435Z,99909.25
2022-08-01T01:30:35.570Z,99904.69
2022-08-01T01:35:40.364Z,99906.09
2022-08-01T01:40:42.499Z,99907.38
2022-08-01T01:45:47.581Z,99892.22
2022-08-01T01:50:49.851Z,99890.44
2022-08-01T01:55:55.424Z,99895.47
2022-08-01T02:01:00.364Z,99894.34
2022-08-01T02:06:04.481Z,99891.72
2022-08-01T02:11:22.284Z,99894.72
2022-08-01T02:16:28.124Z,99892.22
2022-08-01T02:21:31.837Z,99896.41
2022-08-01T02:26:33.161Z,99895.84
2022-08-01T02:31:40.541Z,99902.94
2022-08-01T02:36:41.222Z,99903.97
2022-08-01T02:41:44.503Z,99909.34
2022-08-01T02:46:53.380Z,99914.94
2022-08-01T02:51:56.598Z,99917.66
2022-08-01T02:56:58.673Z,99911.53
2022-08-01T03:02:03.950Z,99904.41
2022-08-01T03:07:07.335Z,99908.44
2022-08-01T03:12:12.286Z,99910.69
2022-08-01T03:17:14.707Z,99913.53
2022-08-01T03:22:16.856Z,99926.13
2022-08-01T03:27:19.504Z,99922.38
2022-08-01T03:32:22.109Z,99920.25
2022-08-01T03:37:26.720Z,99914.94
2022-08-01T03:42:34.859Z,99920.63
2022-08-01T03:47:43.650Z,99915.41
2022-08-01T03:52:48.382Z,99916.94
2022-08-01T03:57:50.331Z,99919.97
2022-08-01T04:02:53.069Z,99926.78
2022-08-01T04:07:56.664Z,99929.78
2022-08-01T04:12:57.450Z,99928.03
2022-08-01T04:17:59.717Z,99932.59
2022-08-01T04:23:00.508Z,99931.47
2022-08-01T04:28:04.933Z,99942.13
2022-08-01T04:33:10.547Z,99945.53
2022-08-01T04:38:13.792Z,99951.88
2022-08-01T04:43:15.178Z,99945.63
2022-08-01T04:48:20.295Z,99950.84
2022-08-01T04:53:23.824Z,99957.78
2022-08-01T04:58:24.439Z,99961.41
2022-08-01T05:03:26.382Z,99964.03
2022-08-01T05:08:27.082Z,99971.75
2022-08-01T05:13:27.698Z,99964.13
2022-08-01T05:18:29.748Z,99974.56
2022-08-01T05:23:42.282Z,99981.16
2022-08-01T05:28:44.054Z,99981.53
2022-08-01T05:33:47.038Z,99986.34
2022-08-01T05:38:47.708Z,99977.38
2022-08-01T05:43:48.474Z,99975.56
2022-08-01T05:48:50.478Z,99982.44
2022-08-01T05:53:51.144Z,99985.50
2022-08-01T05:58:52.614Z,99982.00
2022-08-01T06:03:55.299Z,99985.91
2022-08-01T06:08:55.974Z,99993.47
2022-08-01T06:13:56.614Z,99983.88
2022-08-01T06:18:58.576Z,100001.00
2022-08-01T06:23:59.203Z,100004.16
2022-08-01T06:28:59.858Z,100009.16
2022-08-01T06:34:01.917Z,100009.44
2022-08-01T06:39:02.628Z,100020.06
2022-08-01T06:44:05.325Z,100018.19
2022-08-01T06:49:07.470Z,100039.19
2022-08-01T06:54:08.125Z,100022.84
2022-08-01T06:59:08.792Z,100033.22
2022-08-01T07:04:10.831Z,100041.59
2022-08-01T07:09:14.369Z,100047.63
2022-08-01T07:14:15.423Z,100058.16
2022-08-01T07:19:18.154Z,100064.28
2022-08-01T07:24:20.862Z,100062.06
2022-08-01T07:29:22.047Z,100060.91
2022-08-01T07:34:25.930Z,100059.63
2022-08-01T07:39:26.656Z,100059.78
2022-08-01T07:44:28.337Z,100061.63
2022-08-01T07:49:33.942Z,100062.84
2022-08-01T07:54:38.399Z,100063.97
2022-08-01T07:59:39.066Z,100054.03
2022-08-01T08:04:42.832Z,100054.91
2022-08-01T08:09:51.160Z,100057.44
2022-08-01T08:14:52.158Z,100051.56
2022-08-01T08:19:54.146Z,100062.50
2022-08-01T08:24:54.784Z,100053.06
2022-08-01T08:30:01.415Z,100058.84
2022-08-01T08:35:03.574Z,100059.63
2022-08-01T08:40:05.767Z,100049.63
2022-08-01T08:45:12.137Z,100057.31
2022-08-01T08:50:14.542Z,100055.13
2022-08-01T08:55:17.749Z,100048.91
2022-08-01T09:00:20.902Z,100049.59
2022-08-01T09:05:26.638Z,100056.28
2022-08-01T09:10:40.777Z,100057.06
2022-08-01T09:15:43.466Z,100058.41
2022-08-01T09:20:45.464Z,100060.81
2022-08-01T09:25:59.209Z,100056.41
2022-08-01T09:31:00.644Z,100059.13
2022-08-01T09:36:02.585Z,100062.19
2022-08-01T09:41:03.237Z,100050.16
2022-08-01T09:46:12.575Z,100048.56
2022-08-01T09:51:59.116Z,100053.03
2022-08-01T09:56:51.506Z,100044.19
2022-08-01T10:01:52.249Z,100060.13
2022-08-01T10:07:06.437Z,100049.84
2022-08-01T10:12:07.753Z,100051.06
2022-08-01T10:17:19.543Z,100052.91
2022-08-01T10:22:24.659Z,100052.44
2022-08-01T10:27:38.382Z,100061.34
2022-08-01T10:32:43.269Z,100053.50
2022-08-01T10:37:57.562Z,100055.94
2022-08-01T10:42:58.766Z,100060.72
2022-08-01T10:48:05.303Z,100071.22
2022-08-01T10:53:15.916Z,100068.78
2022-08-01T10:58:25.563Z,100063.13
2022-08-01T11:03:56.109Z,100069.66
2022-08-01T11:09:00.058Z,100078.25
2022-08-01T11:14:10.448Z,100068.91
2022-08-01T11:19:11.737Z,100050.09
2022-08-01T11:24:13.762Z,100060.53
2022-08-01T11:29:21.571Z,100047.00
2022-08-01T11:34:55.087Z,100050.09
2022-08-01T11:40:19.164Z,100032.84
2022-08-01T11:45:19.775Z,100043.78
2022-08-01T11:50:32.483Z,100058.91
2022-08-01T11:55:36.006Z,100069.38
2022-08-01T12:00:38.169Z,100058.69
2022-08-01T12:05:46.243Z,100067.38
2022-08-01T12:10:52.184Z,100063.13
2022-08-01T12:16:09.270Z,100080.81
2022-08-01T12:21:10.148Z,100070.16
2022-08-01T12:26:28.578Z,100070.56
2022-08-01T12:31:33.695Z,100076.28
2022-08-01T12:36:34.395Z,100067.47
2022-08-01T12:41:37.650Z,100059.78
2022-08-01T12:46:42.672Z,100058.38
2022-08-01T12:51:45.725Z,100052.72
2022-08-01T12:56:59.630Z,100052.97
2022-08-01T13:02:10.517Z,100071.38
2022-08-01T13:07:11.224Z,100058.47
2022-08-01T13:12:14.090Z,100061.59
2022-08-01T13:17:31.939Z,100071.88
2022-08-01T13:22:36.129Z,100055.41
2022-08-01T13:27:38.110Z,100057.56
2022-08-01T13:33:00.199Z,100061.44
2022-08-01T13:38:00.843Z,100062.00
2022-08-01T13:43:02.815Z,100059.34
2022-08-01T13:48:11.767Z,100060.50
2022-08-01T13:53:19.570Z,100062.94
2022-08-01T13:58:21.744Z,100068.59
2022-08-01T14:03:22.408Z,100066.13
2022-08-01T14:08:35.326Z,100066.66
2022-08-01T14:13:38.237Z,100091.13
2022-08-01T14:18:45.941Z,100088.69
2022-08-01T14:23:46.666Z,100080.94
2022-08-01T14:28:48.656Z,100078.00
2022-08-01T14:33:49.310Z,100082.09
2022-08-01T14:38:49.920Z,100084.69
2022-08-01T14:43:51.852Z,100087.03
2022-08-01T14:48:52.604Z,100085.56
2022-08-01T14:53:53.970Z,100083.16
2022-08-01T14:58:58.862Z,100092.59
2022-08-01T15:03:59.508Z,100096.03
2022-08-01T15:09:00.102Z,100096.03
2022-08-01T15:14:19.733Z,100091.34
2022-08-01T15:19:20.657Z,100089.50
2022-08-01T15:24:21.566Z,100104.88
2022-08-01T15:29:23.599Z,100106.28
2022-08-01T15:34:24.598Z,100093.03
2022-08-01T15:39:25.556Z,100101.53
2022-08-01T15:44:27.491Z,100110.25
2022-08-01T15:49:29.180Z,100106.44
2022-08-01T15:54:29.931Z,100103.25
2022-08-01T15:59:31.901Z,100109.31
2022-08-01T16:04:32.566Z,100124.69
2022-08-01T16:09:33.314Z,100123.59
2022-08-01T16:14:35.258Z,100117.03
2022-08-01T16:19:35.897Z,100114.41
2022-08-01T16:24:36.607Z,100109.34
2022-08-01T16:29:38.677Z,100101.97
2022-08-01T16:34:45.982Z,100111.09
2022-08-01T16:39:47.656Z,100097.88
2022-08-01T16:44:49.809Z,100099.91
2022-08-01T16:49:50.597Z,100104.25
2022-08-01T16:54:51.286Z,100107.41
2022-08-01T16:59:53.336Z,100105.00
2022-08-01T17:04:54.494Z,100107.25
2022-08-01T17:09:55.309Z,100119.47
2022-08-01T17:14:57.564Z,100124.34
2022-08-01T17:19:58.216Z,100114.63
2022-08-01T17:24:58.887Z,100126.25
2022-08-01T17:30:00.880Z,100120.38
2022-08-01T17:35:01.617Z,100126.47
2022-08-01T17:40:06.364Z,100137.66
2022-08-01T17:45:27.912Z,100141.56
2022-08-01T17:50:29.184Z,100138.97
2022-08-01T17:55:55.772Z,100140.59
2022-08-01T18:00:52.828Z,100143.91
2022-08-01T18:05:53.619Z,100144.06
2022-08-01T18:10:55.352Z,100143.66
2022-08-01T18:15:57.779Z,100152.31
2022-08-01T18:20:59.270Z,100152.97
2022-08-01T18:26:01.458Z,100153.38
2022-08-01T18:31:03.661Z,100164.69
2022-08-01T18:36:05.790Z,100170.53
2022-08-01T18:41:10.035Z,100173.53
2022-08-01T18:46:12.357Z,100178.63
2022-08-01T18:51:13.038Z,100183.22
2022-08-01T18:56:14.041Z,100199.31
2022-08-01T19:01:16.466Z,100196.78
2022-08-01T19:06:17.204Z,100203.66
2022-08-01T19:11:18.064Z,100199.75
2022-08-01T19:16:20.864Z,100216.03
2022-08-01T19:21:21.693Z,100227.41
2022-08-01T19:26:25.871Z,100222.69
2022-08-01T19:31:29.561Z,100238.25
2022-08-01T19:36:30.795Z,100247.41
2022-08-01T19:41:32.869Z,100249.72
2022-08-01T19:46:35.223Z,100263.66
2022-08-01T19:51:41.336Z,100266.19
2022-08-01T19:56:45.688Z,100277.00
2022-08-01T20:01:48.482Z,100275.59
2022-08-01T20:06:49.387Z,100284.88
2022-08-01T20:11:51.658Z,100288.63
2022-08-01T20:16:55.734Z,100298.41
2022-08-01T20:22:03.888Z,100294.22
2022-08-01T20:27:05.888Z,100305.16
2022-08-01T20:32:09.141Z,100306.41
2022-08-01T20:37:12.843Z,100304.28
2022-08-01T20:42:15.305Z,100313.19
2022-08-01T20:47:17.873Z,100318.41
2022-08-01T20:52:18.544Z,100318.00
2022-08-01T20:57:25.311Z,100324.66
2022-08-01T21:02:38.394Z,100327.00
2022-08-01T21:07:43.537Z,100328.94
2022-08-01T21:12:49.377Z,100323.28
2022-08-01T21:17:58.664Z,100324.88
2022-08-01T21:23:09.500Z,100333.50
2022-08-01T21:28:13.674Z,100327.63
2022-08-01T21:33:15.657Z,100336.84
2022-08-01T21:38:17.331Z,100332.41
2022-08-01T21:43:19.657Z,100332.84
2022-08-01T21:48:26.770Z,100339.03
2022-08-01T21:53:38.736Z,100348.22
2022-08-01T21:58:52.848Z,100354.94
2022-08-01T22:03:57.695Z,100359.38
2022-08-01T22:09:04.139Z,100365.03
2022-08-01T22:14:09.430Z,100358.59
2022-08-01T22:19:10.673Z,100365.38
2022-08-01T22:24:33.158Z,100373.69
2022-08-01T22:29:34.433Z,100381.03
2022-08-01T22:34:35.155Z,100381.75
2022-08-01T22:39:37.114Z,100376.81
2022-08-01T22:44:49.272Z,100379.00
2022-08-01T22:49:59.886Z,100384.44
2022-08-01T22:55:08.329Z,100378.06
2022-08-01T23:00:11.519Z,100389.78
2022-08-01T23:05:15.944Z,100388.19
2022-08-01T23:10:21.059Z,100385.41
2022-08-01T23:15:23.011Z,100396.31
2022-08-01T23:20:24.268Z,100395.00
2022-08-01T23:25:28.233Z,100400.63
2022-08-01T23:30:31.354Z,100400.13
2022-08-01T23:35:35.633Z,100393.50
2022-08-01T23:40:41.008Z,100399.31
2022-08-01T23:46:04.213Z,100394.09
2022-08-01T23:51:02.523Z,100396.19
2022-08-01T23:56:04.633Z,100398.50
